sensor_id;sensor_type;location;lat;lon;timestamp;temperature;humidity
35277;DHT22;21401;50.878;8.050;2023-02-15T00:53:02;-0.80;99.90
35277;DHT22;21401;50.878;8.050;2023-02-15T03:19:36;-0.70;99.90
35277;DHT22;21401;50.878;8.050;2023-02-15T03:40:56;-0.70;99.90
35277;DHT22;21401;50.878;8.050;2023-02-15T04:46:25;-0.80;99.90
35277;DHT22;21401;50.878;8.050;2023-02-15T04:52:50;-0.90;99.90
35277;DHT22;21401;50.878;8.050;2023-02-15T04:59:26;-0.90;99.90
35277;DHT22;21401;50.878;8.050;2023-02-15T06:19:35;-1.80;99.90
35277;DHT22;21401;50.878;8.050;2023-02-15T06:23:07;-1.80;99.90
35277;DHT22;21401;50.878;8.050;2023-02-15T06:26:16;-1.70;99.90
35277;DHT22;21401;50.878;8.050;2023-02-15T06:29:10;-1.70;99.90
35277;DHT22;21401;50.878;8.050;2023-02-15T10:46:20;7.60;99.90
35277;DHT22;21401;50.878;8.050;2023-02-15T10:48:55;7.60;99.90
35277;DHT22;21401;50.878;8.050;2023-02-15T11:35:51;10.20;99.90
35277;DHT22;21401;50.878;8.050;2023-02-15T11:38:30;10.40;99.90
35277;DHT22;21401;50.878;8.050;2023-02-15T11:41:01;10.50;99.90
35277;DHT22;21401;50.878;8.050;2023-02-15T11:46:19;10.40;99.90
35277;DHT22;21401;50.878;8.050;2023-02-15T11:48:46;9.60;99.90
35277;DHT22;21401;50.878;8.050;2023-02-15T11:51:14;8.80;99.90
35277;DHT22;21401;50.878;8.050;2023-02-15T11:56:33;8.00;99.90
35277;DHT22;21401;50.878;8.050;2023-02-15T11:59:06;7.60;99.90
35277;DHT22;21401;50.878;8.050;2023-02-15T12:01:38;7.70;99.90
35277;DHT22;21401;50.878;8.050;2023-02-15T12:04:21;7.80;99.90
35277;DHT22;21401;50.878;8.050;2023-02-15T12:07:12;7.80;99.90
35277;DHT22;21401;50.878;8.050;2023-02-15T12:09:50;8.00;99.90
35277;DHT22;21401;50.878;8.050;2023-02-15T12:12:28;7.80;99.90
35277;DHT22;21401;50.878;8.050;2023-02-15T12:14:58;8.00;99.90
35277;DHT22;21401;50.878;8.050;2023-02-15T12:17:27;7.70;99.90
35277;DHT22;21401;50.878;8.050;2023-02-15T12:19:59;8.00;99.90
35277;DHT22;21401;50.878;8.050;2023-02-15T12:30:37;8.40;99.90
35277;DHT22;21401;50.878;8.050;2023-02-15T14:05:43;7.60;99.90
35277;DHT22;21401;50.878;8.050;2023-02-15T14:08:19;7.80;99.90
35277;DHT22;21401;50.878;8.050;2023-02-15T14:10:59;7.80;99.90
35277;DHT22;21401;50.878;8.050;2023-02-15T14:35:04;7.30;99.90
35277;DHT22;21401;50.878;8.050;2023-02-15T14:37:53;7.20;99.90
35277;DHT22;21401;50.878;8.050;2023-02-15T14:46:37;6.80;99.90
35277;DHT22;21401;50.878;8.050;2023-02-15T14:48:47;6.70;99.90
35277;DHT22;21401;50.878;8.050;2023-02-15T15:07:36;6.70;99.90
35277;DHT22;21401;50.878;8.050;2023-02-15T15:57:06;4.80;99.90
35277;DHT22;21401;50.878;8.050;2023-02-15T15:59:46;4.70;99.90
35277;DHT22;21401;50.878;8.050;2023-02-15T16:10:04;4.50;99.90
35277;DHT22;21401;50.878;8.050;2023-02-15T16:18:00;4.30;99.90
35277;DHT22;21401;50.878;8.050;2023-02-15T16:20:35;4.20;99.90
35277;DHT22;21401;50.878;8.050;2023-02-15T16:29:29;3.80;99.90
35277;DHT22;21401;50.878;8.050;2023-02-15T16:53:39;3.10;99.90
35277;DHT22;21401;50.878;8.050;2023-02-15T16:56:05;3.00;99.90
35277;DHT22;21401;50.878;8.050;2023-02-15T16:58:45;3.00;99.90
35277;DHT22;21401;50.878;8.050;2023-02-15T17:01:20;2.90;99.90
35277;DHT22;21401;50.878;8.050;2023-02-15T17:10:00;2.80;99.90
35277;DHT22;21401;50.878;8.050;2023-02-15T17:13:01;2.80;99.90
35277;DHT22;21401;50.878;8.050;2023-02-15T17:20:37;2.70;99.90
35277;DHT22;21401;50.878;8.050;2023-02-15T17:23:04;2.70;99.90
35277;DHT22;21401;50.878;8.050;2023-02-15T17:25:37;2.60;99.90
35277;DHT22;21401;50.878;8.050;2023-02-15T17:28:05;2.60;99.90
35277;DHT22;21401;50.878;8.050;2023-02-15T17:30:42;2.60;99.90
35277;DHT22;21401;50.878;8.050;2023-02-15T17:33:24;2.50;99.90
35277;DHT22;21401;50.878;8.050;2023-02-15T17:38:31;2.60;99.90
35277;DHT22;21401;50.878;8.050;2023-02-15T17:40:56;2.50;99.90
35277;DHT22;21401;50.878;8.050;2023-02-15T17:43:24;2.50;99.90
35277;DHT22;21401;50.878;8.050;2023-02-15T17:45:50;2.50;99.90
35277;DHT22;21401;50.878;8.050;2023-02-15T17:48:35;2.50;99.90
35277;DHT22;21401;50.878;8.050;2023-02-15T17:51:03;2.50;99.90
35277;DHT22;21401;50.878;8.050;2023-02-15T18:01:49;2.30;99.90
35277;DHT22;21401;50.878;8.050;2023-02-15T18:04:35;2.30;99.90
35277;DHT22;21401;50.878;8.050;2023-02-15T18:07:20;2.30;99.90
35277;DHT22;21401;50.878;8.050;2023-02-15T18:10:18;2.30;99.90
35277;DHT22;21401;50.878;8.050;2023-02-15T18:29:43;2.10;99.90
35277;DHT22;21401;50.878;8.050;2023-02-15T18:50:31;1.90;99.90
35277;DHT22;21401;50.878;8.050;2023-02-15T19:07:55;1.80;99.90
35277;DHT22;21401;50.878;8.050;2023-02-15T19:10:23;1.70;99.90
35277;DHT22;21401;50.878;8.050;2023-02-15T19:12:50;1.70;99.90
35277;DHT22;21401;50.878;8.050;2023-02-15T19:15:24;1.70;99.90
35277;DHT22;21401;50.878;8.050;2023-02-15T19:17:50;1.70;99.90
35277;DHT22;21401;50.878;8.050;2023-02-15T19:22:47;1.70;99.90
35277;DHT22;21401;50.878;8.050;2023-02-15T19:25:22;1.70;99.90
35277;DHT22;21401;50.878;8.050;2023-02-15T19:27:51;1.60;99.90
35277;DHT22;21401;50.878;8.050;2023-02-15T19:30:22;1.60;99.90
35277;DHT22;21401;50.878;8.050;2023-02-15T19:32:49;1.60;99.90
35277;DHT22;21401;50.878;8.050;2023-02-15T19:35:17;1.60;99.90
35277;DHT22;21401;50.878;8.050;2023-02-15T19:37:57;1.60;99.90
35277;DHT22;21401;50.878;8.050;2023-02-15T19:40:25;1.50;99.90
35277;DHT22;21401;50.878;8.050;2023-02-15T19:42:53;1.50;99.90
35277;DHT22;21401;50.878;8.050;2023-02-15T19:45:25;1.50;99.90
35277;DHT22;21401;50.878;8.050;2023-02-15T19:47:51;1.50;99.90
35277;DHT22;21401;50.878;8.050;2023-02-15T19:50:20;1.50;99.90
35277;DHT22;21401;50.878;8.050;2023-02-15T20:01:31;1.60;99.90
35277;DHT22;21401;50.878;8.050;2023-02-15T20:09:36;1.60;99.90
35277;DHT22;21401;50.878;8.050;2023-02-15T20:12:25;1.60;99.90
35277;DHT22;21401;50.878;8.050;2023-02-15T20:14:51;1.60;99.90
35277;DHT22;21401;50.878;8.050;2023-02-15T20:17:17;1.60;99.90
35277;DHT22;21401;50.878;8.050;2023-02-15T20:19:43;1.50;99.90
35277;DHT22;21401;50.878;8.050;2023-02-15T20:25:27;1.50;99.90
35277;DHT22;21401;50.878;8.050;2023-02-15T20:27:58;1.40;99.90
35277;DHT22;21401;50.878;8.050;2023-02-15T20:30:29;1.40;99.90
35277;DHT22;21401;50.878;8.050;2023-02-15T20:32:55;1.40;99.90
35277;DHT22;21401;50.878;8.050;2023-02-15T20:35:22;1.40;99.90
35277;DHT22;21401;50.878;8.050;2023-02-15T20:37:54;1.40;99.90
35277;DHT22;21401;50.878;8.050;2023-02-15T20:40:28;1.30;99.90
35277;DHT22;21401;50.878;8.050;2023-02-15T20:48:25;1.20;99.90
35277;DHT22;21401;50.878;8.050;2023-02-15T20:50:51;1.20;99.90
35277;DHT22;21401;50.878;8.050;2023-02-15T20:54:01;1.20;99.90
35277;DHT22;21401;50.878;8.050;2023-02-15T20:56:54;1.20;99.90
35277;DHT22;21401;50.878;8.050;2023-02-15T20:59:31;1.10;99.90
35277;DHT22;21401;50.878;8.050;2023-02-15T21:01:59;1.10;99.90
35277;DHT22;21401;50.878;8.050;2023-02-15T21:04:31;1.00;99.90
35277;DHT22;21401;50.878;8.050;2023-02-15T21:06:58;1.00;99.90
35277;DHT22;21401;50.878;8.050;2023-02-15T21:09:24;1.00;99.90
35277;DHT22;21401;50.878;8.050;2023-02-15T21:11:53;1.00;99.90
35277;DHT22;21401;50.878;8.050;2023-02-15T21:14:23;1.00;99.90
35277;DHT22;21401;50.878;8.050;2023-02-15T21:16:50;0.90;99.90
35277;DHT22;21401;50.878;8.050;2023-02-15T21:19:20;0.90;99.90
35277;DHT22;21401;50.878;8.050;2023-02-15T21:21:50;0.70;99.90
35277;DHT22;21401;50.878;8.050;2023-02-15T21:24:27;0.80;99.90
35277;DHT22;21401;50.878;8.050;2023-02-15T21:26:54;0.70;99.90
35277;DHT22;21401;50.878;8.050;2023-02-15T21:29:23;0.70;99.90
35277;DHT22;21401;50.878;8.050;2023-02-15T21:31:48;0.70;99.90
35277;DHT22;21401;50.878;8.050;2023-02-15T21:34:15;0.70;99.90
35277;DHT22;21401;50.878;8.050;2023-02-15T21:36:43;0.60;99.90
35277;DHT22;21401;50.878;8.050;2023-02-15T21:39:20;0.60;99.90
35277;DHT22;21401;50.878;8.050;2023-02-15T21:41:48;0.60;99.90
35277;DHT22;21401;50.878;8.050;2023-02-15T21:44:33;0.40;99.90
35277;DHT22;21401;50.878;8.050;2023-02-15T21:47:26;0.60;99.90
35277;DHT22;21401;50.878;8.050;2023-02-15T21:50:13;0.60;99.90
35277;DHT22;21401;50.878;8.050;2023-02-15T21:52:58;0.50;99.90
35277;DHT22;21401;50.878;8.050;2023-02-15T21:55:24;0.60;99.90
35277;DHT22;21401;50.878;8.050;2023-02-15T21:57:50;0.60;99.90
35277;DHT22;21401;50.878;8.050;2023-02-15T22:00:21;0.60;99.90
35277;DHT22;21401;50.878;8.050;2023-02-15T22:02:50;0.50;99.90
35277;DHT22;21401;50.878;8.050;2023-02-15T22:05:30;0.40;99.90
35277;DHT22;21401;50.878;8.050;2023-02-15T22:07:56;0.40;99.90
35277;DHT22;21401;50.878;8.050;2023-02-15T22:10:30;0.40;99.90
35277;DHT22;21401;50.878;8.050;2023-02-15T22:12:58;0.40;99.90
35277;DHT22;21401;50.878;8.050;2023-02-15T22:15:30;0.40;99.90
35277;DHT22;21401;50.878;8.050;2023-02-15T22:17:58;0.40;99.90
35277;DHT22;21401;50.878;8.050;2023-02-15T22:20:24;0.30;99.90
35277;DHT22;21401;50.878;8.050;2023-02-15T22:22:52;0.10;99.90
35277;DHT22;21401;50.878;8.050;2023-02-15T22:25:20;0.10;99.90
35277;DHT22;21401;50.878;8.050;2023-02-15T22:27:47;0.20;99.90
35277;DHT22;21401;50.878;8.050;2023-02-15T22:30:26;0.30;99.90
35277;DHT22;21401;50.878;8.050;2023-02-15T22:32:53;0.30;99.90
35277;DHT22;21401;50.878;8.050;2023-02-15T22:37:51;0.30;99.90
35277;DHT22;21401;50.878;8.050;2023-02-15T22:40:18;0.30;99.90
35277;DHT22;21401;50.878;8.050;2023-02-15T22:42:51;0.20;99.90
35277;DHT22;21401;50.878;8.050;2023-02-15T22:45:20;0.10;99.90
35277;DHT22;21401;50.878;8.050;2023-02-15T22:47:52;0.00;99.90
35277;DHT22;21401;50.878;8.050;2023-02-15T22:50:23;0.00;99.90
35277;DHT22;21401;50.878;8.050;2023-02-15T22:52:49;0.00;99.90
35277;DHT22;21401;50.878;8.050;2023-02-15T22:55:17;0.00;99.90
35277;DHT22;21401;50.878;8.050;2023-02-15T22:57:50;0.00;99.90
35277;DHT22;21401;50.878;8.050;2023-02-15T23:00:21;0.00;99.90
35277;DHT22;21401;50.878;8.050;2023-02-15T23:02:48;0.00;99.90
35277;DHT22;21401;50.878;8.050;2023-02-15T23:05:19;0.00;99.90
35277;DHT22;21401;50.878;8.050;2023-02-15T23:07:46;-0.10;99.90
35277;DHT22;21401;50.878;8.050;2023-02-15T23:10:15;-0.30;99.90
35277;DHT22;21401;50.878;8.050;2023-02-15T23:12:47;-0.40;99.90
35277;DHT22;21401;50.878;8.050;2023-02-15T23:15:32;-0.40;99.90
35277;DHT22;21401;50.878;8.050;2023-02-15T23:20:40;-0.30;99.90
35277;DHT22;21401;50.878;8.050;2023-02-15T23:23:10;-0.30;99.90
35277;DHT22;21401;50.878;8.050;2023-02-15T23:25:36;-0.30;99.90
35277;DHT22;21401;50.878;8.050;2023-02-15T23:28:03;-0.30;99.90
35277;DHT22;21401;50.878;8.050;2023-02-15T23:30:29;-0.20;99.90
35277;DHT22;21401;50.878;8.050;2023-02-15T23:32:56;-0.10;99.90
35277;DHT22;21401;50.878;8.050;2023-02-15T23:35:24;-0.20;99.90
35277;DHT22;21401;50.878;8.050;2023-02-15T23:37:50;-0.30;99.90
35277;DHT22;21401;50.878;8.050;2023-02-15T23:40:18;-0.40;99.90
35277;DHT22;21401;50.878;8.050;2023-02-15T23:43:03;-0.40;99.90
35277;DHT22;21401;50.878;8.050;2023-02-15T23:45:36;-0.30;99.90
35277;DHT22;21401;50.878;8.050;2023-02-15T23:48:19;-0.30;99.90
35277;DHT22;21401;50.878;8.050;2023-02-15T23:50:58;-0.50;99.90
35277;DHT22;21401;50.878;8.050;2023-02-15T23:53:24;-0.40;99.90
35277;DHT22;21401;50.878;8.050;2023-02-15T23:55:50;-0.30;99.90
35277;DHT22;21401;50.878;8.050;2023-02-15T23:58:18;-0.30;99.90
